Time;durP1;ratioP1;P1;durP2;ratioP2;P2;SDS_P1;SDS_P2;PMS_P1;PMS_P2;Temp;Humidity;BMP_temperature;BMP_pressure;BME280_temperature;BME280_humidity;BME280_pressure;Samples;Min_cycle;Max_cycle;Signal;HPM_P1;HPM_P2
2024/03/16 00:02:18;;;;;;;10.77;2.95;;;16.00;61.60;17.40;100744.00;;;;5023205;28;20200;-75
2024/03/16 00:04:46;;;;;;;9.60;3.78;;;16.00;61.60;17.40;100759.00;;;;4999294;28;20607;-74
2024/03/16 00:07:13;;;;;;;5.30;2.95;;;15.90;61.70;17.40;100754.00;;;;5000232;28;20192;-74
2024/03/16 00:09:40;;;;;;;11.30;2.97;;;15.90;61.70;17.40;100744.00;;;;5028043;28;20200;-74
2024/03/16 00:12:08;;;;;;;8.57;2.45;;;15.90;61.70;17.40;100742.00;;;;5001248;28;20286;-73
2024/03/16 00:14:35;;;;;;;9.68;2.90;;;15.90;61.90;17.40;100754.00;;;;5015141;28;20232;-73
2024/03/16 00:17:03;;;;;;;10.07;2.80;;;15.90;61.80;17.30;100758.00;;;;5015850;28;20200;-73
2024/03/16 00:19:30;;;;;;;11.27;2.55;;;15.80;61.90;17.30;100751.00;;;;5025488;28;20234;-73
2024/03/16 00:21:57;;;;;;;6.63;2.13;;;15.80;62.10;17.30;100756.00;;;;5001237;28;20192;-73
2024/03/16 00:24:25;;;;;;;9.35;2.47;;;15.80;62.10;17.30;100760.00;;;;4999252;28;20300;-73
2024/03/16 00:26:54;;;;;;;9.57;3.17;;;15.80;62.10;17.30;100757.00;;;;5002039;28;20196;-73
2024/03/16 00:29:21;;;;;;;13.77;3.42;;;15.80;62.10;17.30;100767.00;;;;4998872;28;20196;-74
2024/03/16 00:31:49;;;;;;;18.35;2.85;;;15.80;62.30;17.30;100758.00;;;;5006628;28;20278;-73
2024/03/16 00:34:16;;;;;;;8.98;2.50;;;15.80;62.20;17.30;100769.00;;;;5015424;28;20206;-74
2024/03/16 00:36:43;;;;;;;9.48;2.42;;;15.80;62.30;17.30;100772.00;;;;5021735;28;20204;-74
2024/03/16 00:39:18;;;;;;;11.55;2.45;;;15.80;62.20;17.30;100765.00;;;;5009602;28;20192;-74
2024/03/16 00:41:45;;;;;;;9.68;2.63;;;15.80;62.20;17.30;100769.00;;;;5021673;28;20229;-73
2024/03/16 00:44:12;;;;;;;14.75;3.15;;;15.80;62.20;17.20;100777.00;;;;5024556;28;20207;-73
2024/03/16 00:46:39;;;;;;;12.38;2.70;;;15.80;62.30;17.30;100773.00;;;;5034046;28;20206;-75
2024/03/16 00:49:06;;;;;;;8.75;2.10;;;15.80;62.40;17.20;100778.00;;;;5008908;28;20201;-74
2024/03/16 00:51:33;;;;;;;10.90;2.20;;;15.80;62.40;17.20;100786.00;;;;5019476;28;20222;-74
2024/03/16 00:54:01;;;;;;;13.02;2.42;;;15.80;62.50;17.20;100790.00;;;;5035171;28;20231;-75
2024/03/16 00:56:28;;;;;;;9.40;2.60;;;15.70;62.50;17.20;100791.00;;;;5030320;28;20220;-74
2024/03/16 00:58:55;;;;;;;11.50;2.78;;;15.70;62.70;17.20;100800.00;;;;5011280;28;20223;-73
2024/03/16 01:01:23;;;;;;;7.72;2.15;;;15.70;62.80;17.20;100796.00;;;;5001573;28;20196;-74
2024/03/16 01:03:50;;;;;;;9.48;2.00;;;15.70;62.80;17.20;100792.00;;;;5017345;28;20287;-75
2024/03/16 01:06:17;;;;;;;12.38;2.50;;;15.70;62.80;17.20;100797.00;;;;4998500;28;20712;-74
2024/03/16 01:08:44;;;;;;;9.07;2.38;;;15.70;62.90;17.10;100798.00;;;;5017505;28;20567;-74
2024/03/16 01:11:11;;;;;;;10.77;2.28;;;15.60;63.00;17.10;100802.00;;;;4999503;28;20203;-74
2024/03/16 01:13:39;;;;;;;8.70;2.15;;;15.60;63.10;17.10;100800.00;;;;5008911;28;20191;-73
2024/03/16 01:16:06;;;;;;;10.60;2.30;;;15.60;63.30;17.10;100806.00;;;;5013943;28;20219;-73
2024/03/16 01:18:34;;;;;;;10.68;2.45;;;15.60;63.40;17.10;100807.00;;;;5027535;28;20195;-74
2024/03/16 01:21:01;;;;;;;8.95;2.30;;;15.60;63.40;17.10;100814.00;;;;5010408;28;20201;-73
2024/03/16 01:23:30;;;;;;;9.20;2.45;;;15.60;63.60;17.00;100816.00;;;;5002934;28;20657;-73
2024/03/16 01:25:57;;;;;;;8.00;2.35;;;15.50;63.60;17.00;100815.00;;;;5007733;28;20218;-73
2024/03/16 01:28:24;;;;;;;8.15;2.53;;;15.50;63.70;17.00;100818.00;;;;5015968;28;20279;-74
2024/03/16 01:30:51;;;;;;;9.70;2.70;;;15.50;63.80;17.00;100815.00;;;;5030127;28;20188;-73
2024/03/16 01:33:19;;;;;;;10.57;2.88;;;15.50;63.90;17.00;100819.00;;;;5009292;28;20664;-75
2024/03/16 01:35:48;;;;;;;9.15;2.95;;;15.50;64.00;17.00;100821.00;;;;5006656;28;20400;-73
2024/03/16 01:38:15;;;;;;;11.25;2.95;;;15.50;63.90;17.00;100831.00;;;;5007857;28;20635;-73
2024/03/16 01:40:43;;;;;;;7.20;2.67;;;15.50;64.00;17.00;100829.00;;;;5005858;28;20245;-74
2024/03/16 01:43:12;;;;;;;11.23;3.63;;;15.50;64.10;17.00;100828.00;;;;5018974;28;20668;-74
2024/03/16 01:45:39;;;;;;;8.95;3.67;;;15.50;64.80;17.00;100833.00;;;;5002740;28;20200;-74
2024/03/16 01:48:09;;;;;;;8.02;4.00;;;15.40;64.20;16.90;100845.00;;;;5024193;28;20196;-75
2024/03/16 01:50:37;;;;;;;11.82;4.13;;;15.40;64.30;16.90;100845.00;;;;5007292;28;20204;-74
2024/03/16 01:53:05;;;;;;;10.55;4.20;;;15.40;64.20;16.90;100848.00;;;;5028726;28;20197;-73
2024/03/16 01:55:32;;;;;;;13.60;3.55;;;15.40;64.00;16.80;100859.00;;;;5030218;28;20270;-73
2024/03/16 01:57:59;;;;;;;8.27;3.47;;;15.40;64.00;16.80;100856.00;;;;5014466;28;20198;-74
2024/03/16 02:00:27;;;;;;;6.13;2.97;;;15.30;64.00;16.80;100863.00;;;;5000377;28;20294;-74
2024/03/16 02:02:55;;;;;;;9.45;2.20;;;15.30;63.70;16.70;100868.00;;;;5037185;28;20545;-74
2024/03/16 02:05:22;;;;;;;8.25;2.10;;;15.30;64.20;16.70;100878.00;;;;5004408;28;20244;-73
2024/03/16 02:07:49;;;;;;;9.05;2.42;;;15.30;63.50;16.70;100891.00;;;;5014997;28;20206;-74
2024/03/16 02:10:16;;;;;;;8.45;2.30;;;15.20;63.30;16.60;100889.00;;;;5015887;28;20229;-73
2024/03/16 02:12:44;;;;;;;7.57;1.88;;;15.20;63.20;16.60;100891.00;;;;5013184;28;20196;-73
2024/03/16 02:15:11;;;;;;;8.20;1.70;;;15.20;63.10;16.60;100895.00;;;;4997341;28;20228;-73
2024/03/16 02:17:38;;;;;;;5.15;1.25;;;15.10;63.00;16.50;100900.00;;;;4997553;28;20200;-73
2024/03/16 02:20:09;;;;;;;6.03;1.90;;;15.10;62.90;16.50;100905.00;;;;4997031;28;20196;-74
2024/03/16 02:22:36;;;;;;;8.70;2.38;;;15.00;62.70;16.40;100910.00;;;;4998248;28;20208;-73
2024/03/16 02:25:04;;;;;;;2.58;1.25;;;15.00;62.50;16.30;100912.00;;;;4996799;28;20192;-73
2024/03/16 02:27:32;;;;;;;5.45;1.52;;;14.90;62.40;16.20;100915.00;;;;5008296;28;20197;-72
2024/03/16 02:29:59;;;;;;;4.72;1.52;;;14.90;62.40;16.20;100925.00;;;;5000386;28;20390;-73
2024/03/16 02:32:26;;;;;;;3.65;1.33;;;14.80;62.40;16.10;100935.00;;;;5010928;28;20220;-73
2024/03/16 02:34:53;;;;;;;5.18;1.20;;;14.80;62.40;16.10;100923.00;;;;5007057;28;20571;-73
2024/03/16 02:37:20;;;;;;;3.92;1.30;;;14.70;62.50;16.10;100925.00;;;;5015918;28;20660;-73
2024/03/16 02:39:49;;;;;;;1.67;0.93;;;14.70;62.60;16.10;100937.00;;;;4997856;28;20692;-73
2024/03/16 02:42:16;;;;;;;4.50;1.10;;;14.60;62.70;16.00;100927.00;;;;5024167;28;20668;-73
2024/03/16 02:44:44;;;;;;;1.75;0.80;;;14.60;62.70;16.00;100927.00;;;;5003508;28;20191;-74
2024/03/16 02:47:12;;;;;;;1.42;0.52;;;14.60;62.70;16.00;100940.00;;;;5032600;28;20231;-73
2024/03/16 02:49:40;;;;;;;2.88;0.88;;;14.50;62.70;15.90;100938.00;;;;5017096;28;20752;-73
2024/03/16 02:52:09;;;;;;;1.60;0.45;;;14.50;62.80;15.90;100940.00;;;;5026254;28;20199;-73
2024/03/16 02:54:36;;;;;;;2.22;0.70;;;14.40;63.40;15.80;100953.00;;;;5016536;28;20199;-73
2024/03/16 02:57:03;;;;;;;2.47;0.77;;;14.40;62.80;15.80;100955.00;;;;5001182;28;20220;-73
2024/03/16 02:59:31;;;;;;;1.08;0.50;;;14.30;62.80;15.70;100956.00;;;;5027774;28;20730;-73
2024/03/16 03:01:58;;;;;;;0.50;0.45;;;14.30;62.90;15.70;100954.00;;;;4999617;28;20247;-73
2024/03/16 03:04:25;;;;;;;1.20;0.60;;;14.30;63.00;15.70;100966.00;;;;5019313;28;20218;-72
2024/03/16 03:06:52;;;;;;;1.65;0.73;;;14.20;63.00;15.60;100968.00;;;;5013247;28;20195;-73
2024/03/16 03:09:20;;;;;;;1.27;0.60;;;14.20;63.00;15.60;100970.00;;;;5007452;28;20609;-73
2024/03/16 03:11:48;;;;;;;1.15;0.68;;;14.20;63.00;15.60;100977.00;;;;5019040;28;20214;-72
2024/03/16 03:14:16;;;;;;;0.90;0.82;;;14.10;63.10;15.60;100976.00;;;;5031410;28;20251;-72
2024/03/16 03:16:44;;;;;;;2.13;1.02;;;14.10;63.30;15.60;100989.00;;;;5015888;28;20227;-71
2024/03/16 03:19:12;;;;;;;2.92;0.82;;;14.10;63.30;15.60;100991.00;;;;5001016;28;20223;-72
2024/03/16 03:21:39;;;;;;;1.63;0.98;;;14.10;63.40;15.60;101004.00;;;;5016870;28;20192;-72
2024/03/16 03:24:07;;;;;;;2.67;1.23;;;14.00;63.40;15.60;101014.00;;;;4999216;28;20287;-72
2024/03/16 03:26:34;;;;;;;3.30;1.48;;;14.00;63.50;15.50;101008.00;;;;5011741;28;20211;-72
2024/03/16 03:29:01;;;;;;;3.35;1.30;;;14.00;63.60;15.50;101012.00;;;;5005561;28;20287;-72
2024/03/16 03:31:29;;;;;;;4.45;2.13;;;14.00;63.60;15.50;101012.00;;;;5015211;28;20188;-72
2024/03/16 03:33:56;;;;;;;5.22;2.28;;;14.00;64.30;15.40;101020.00;;;;5004122;28;20202;-72
2024/03/16 03:36:23;;;;;;;5.25;3.05;;;13.90;63.60;15.40;101032.00;;;;5018818;28;20677;-72
2024/03/16 03:38:49;;;;;;;3.60;2.17;;;13.90;63.70;15.40;101027.00;;;;5024218;28;20192;-73
2024/03/16 03:41:18;;;;;;;3.67;2.45;;;13.90;63.80;15.40;101039.00;;;;5000720;28;20246;-73
2024/03/16 03:43:47;;;;;;;2.25;1.83;;;13.80;64.60;15.40;101039.00;;;;5012691;28;20214;-73
2024/03/16 03:46:28;;;;;;;2.78;1.77;;;13.80;64.00;15.40;101040.00;;;;5015617;28;20588;-73
2024/03/16 03:49:10;;;;;;;1.83;1.73;;;13.80;64.10;15.40;101046.00;;;;5018104;28;20199;-73
2024/03/16 03:51:38;;;;;;;4.05;1.58;;;13.80;63.90;15.30;101046.00;;;;5014738;28;20216;-73
2024/03/16 03:54:07;;;;;;;4.07;1.30;;;13.80;63.80;15.30;101050.00;;;;5019016;28;20196;-73
2024/03/16 03:56:34;;;;;;;4.05;1.40;;;13.70;63.80;15.30;101060.00;;;;5018721;28;20228;-73
2024/03/16 03:59:02;;;;;;;4.38;1.63;;;13.70;63.70;15.20;101063.00;;;;5015544;28;20318;-73
2024/03/16 04:01:29;;;;;;;2.55;1.35;;;13.70;63.70;15.20;101066.00;;;;5018882;28;20573;-73
2024/03/16 04:03:57;;;;;;;3.20;1.80;;;13.70;64.00;15.20;101074.00;;;;4998265;28;20196;-73
2024/03/16 04:06:26;;;;;;;4.40;1.92;;;13.60;63.90;15.20;101078.00;;;;5015400;28;20236;-72
2024/03/16 04:08:53;;;;;;;4.07;2.03;;;13.60;64.00;15.20;101083.00;;;;4999407;28;20247;-73
2024/03/16 04:11:20;;;;;;;2.85;1.30;;;13.60;64.10;15.10;101083.00;;;;4999300;28;20223;-73
2024/03/16 04:13:48;;;;;;;2.80;1.60;;;13.50;64.10;15.10;101100.00;;;;5012085;28;20196;-73
2024/03/16 04:16:15;;;;;;;2.70;0.98;;;13.50;64.10;15.10;101096.00;;;;4983682;28;20685;-73
2024/03/16 04:18:43;;;;;;;3.35;1.55;;;13.50;64.20;15.00;101092.00;;;;5009384;28;20219;-73
2024/03/16 04:21:10;;;;;;;2.22;0.98;;;13.50;64.10;15.00;101106.00;;;;4983422;28;20628;-73
2024/03/16 04:23:37;;;;;;;1.38;0.90;;;13.40;64.10;15.00;101112.00;;;;5016336;28;20200;-73
2024/03/16 04:26:04;;;;;;;2.30;0.88;;;13.40;64.10;15.00;101119.00;;;;5007619;28;20720;-73
2024/03/16 04:28:32;;;;;;;3.25;0.98;;;13.40;64.20;15.00;101131.00;;;;4989190;28;20211;-73
2024/03/16 04:30:59;;;;;;;0.90;0.60;;;13.40;64.30;15.00;101129.00;;;;4994820;28;20192;-73
2024/03/16 04:33:27;;;;;;;2.17;0.80;;;13.40;64.30;14.90;101129.00;;;;4999007;28;20210;-73
2024/03/16 04:35:54;;;;;;;1.45;0.73;;;13.40;64.40;14.90;101138.00;;;;4998745;28;20537;-74
2024/03/16 04:38:22;;;;;;;1.33;1.00;;;13.40;64.40;14.90;101147.00;;;;4992420;28;20191;-74
2024/03/16 04:40:49;;;;;;;0.95;0.77;;;13.30;64.30;14.90;101156.00;;;;5001418;28;20203;-74
2024/03/16 04:43:17;;;;;;;2.40;0.90;;;13.30;64.40;14.90;101156.00;;;;5002086;28;20187;-73
2024/03/16 04:45:47;;;;;;;2.63;1.30;;;13.30;64.40;14.80;101158.00;;;;4991097;28;20275;-73
2024/03/16 04:48:15;;;;;;;2.40;0.80;;;13.20;64.40;14.90;101168.00;;;;5001749;28;20569;-73
2024/03/16 04:50:42;;;;;;;1.83;0.90;;;13.20;64.40;14.80;101170.00;;;;4996041;28;20658;-74
2024/03/16 04:53:11;;;;;;;2.13;0.80;;;13.20;64.40;14.80;101173.00;;;;4998424;28;20196;-73
2024/03/16 04:55:39;;;;;;;1.20;0.70;;;13.20;64.40;14.70;101179.00;;;;5014883;28;20191;-73
2024/03/16 04:58:07;;;;;;;1.02;0.73;;;13.20;64.30;14.70;101175.00;;;;5012619;28;20223;-74
2024/03/16 05:00:36;;;;;;;2.15;0.60;;;13.20;64.50;14.70;101181.00;;;;4996062;28;20273;-73
2024/03/16 05:03:03;;;;;;;5.30;1.10;;;13.20;64.50;14.70;101185.00;;;;4982950;28;20207;-74
2024/03/16 05:05:30;;;;;;;3.08;1.17;;;13.10;64.40;14.70;101186.00;;;;5023651;28;20220;-73
2024/03/16 05:07:57;;;;;;;4.47;1.15;;;13.10;64.50;14.70;101188.00;;;;5014459;28;20206;-74
2024/03/16 05:10:25;;;;;;;3.42;0.90;;;13.10;64.50;14.70;101199.00;;;;5005027;28;20195;-74
2024/03/16 05:12:52;;;;;;;4.35;0.75;;;13.10;64.50;14.70;101204.00;;;;5013454;28;20675;-74
2024/03/16 05:15:20;;;;;;;2.20;0.88;;;13.10;64.60;14.70;101210.00;;;;5015665;28;20208;-74
2024/03/16 05:17:48;;;;;;;2.60;1.00;;;13.10;64.70;14.70;101218.00;;;;5044331;28;20235;-73
2024/03/16 05:20:15;;;;;;;3.45;1.00;;;13.10;64.70;14.60;101218.00;;;;4997852;28;20188;-73
2024/03/16 05:22:42;;;;;;;2.10;0.70;;;13.10;64.70;14.60;101228.00;;;;5014106;28;21305;-74
2024/03/16 05:25:10;;;;;;;1.50;0.70;;;13.00;64.70;14.60;101232.00;;;;5011902;28;20665;-73
2024/03/16 05:27:37;;;;;;;3.45;0.95;;;13.00;64.70;14.60;101235.00;;;;5030137;28;20206;-74
2024/03/16 05:30:07;;;;;;;1.17;0.85;;;13.00;64.50;14.60;101253.00;;;;5007419;28;20202;-74
2024/03/16 05:32:34;;;;;;;2.72;0.68;;;13.00;64.80;14.60;101252.00;;;;5007808;28;20193;-74
2024/03/16 05:35:02;;;;;;;2.95;1.00;;;13.00;64.70;14.60;101255.00;;;;5002814;28;20231;-74
2024/03/16 05:37:29;;;;;;;2.92;0.90;;;13.00;64.70;14.60;101265.00;;;;5006643;28;20764;-74
2024/03/16 05:39:56;;;;;;;2.42;0.82;;;13.00;65.40;14.50;101279.00;;;;5014251;28;20279;-74
2024/03/16 05:42:23;;;;;;;2.50;0.88;;;12.90;64.70;14.50;101297.00;;;;5017363;28;20200;-74
2024/03/16 05:44:51;;;;;;;2.13;0.57;;;12.90;64.50;14.40;101296.00;;;;5000253;28;20568;-74
2024/03/16 05:47:21;;;;;;;3.78;0.80;;;12.90;64.30;14.40;101299.00;;;;5004756;28;20583;-74
2024/03/16 05:49:48;;;;;;;2.15;0.50;;;12.90;64.10;14.30;101303.00;;;;5001870;28;20196;-74
2024/03/16 05:52:15;;;;;;;2.05;0.63;;;12.80;64.00;14.30;101307.00;;;;5014235;28;20196;-73
2024/03/16 05:54:43;;;;;;;0.90;0.38;;;12.80;64.00;14.20;101311.00;;;;5028616;28;20195;-73
2024/03/16 05:57:10;;;;;;;2.33;0.80;;;12.70;63.90;14.20;101311.00;;;;5013230;28;20231;-74
2024/03/16 05:59:37;;;;;;;2.50;0.50;;;12.70;64.00;14.20;101316.00;;;;5003076;28;20812;-74
2024/03/16 06:02:04;;;;;;;2.67;0.63;;;12.60;64.10;14.20;101327.00;;;;5000282;28;20192;-73
2024/03/16 06:04:31;;;;;;;2.83;0.50;;;12.60;64.20;14.10;101330.00;;;;5008740;28;20573;-74
2024/03/16 06:06:59;;;;;;;3.75;0.45;;;12.60;64.20;14.10;101347.00;;;;5000090;28;20279;-74
2024/03/16 06:09:26;;;;;;;1.38;0.30;;;12.60;64.20;14.10;101352.00;;;;5000925;28;20188;-74
2024/03/16 06:11:53;;;;;;;3.15;0.77;;;12.60;64.20;14.10;101368.00;;;;5013453;28;20202;-74
2024/03/16 06:14:20;;;;;;;1.60;0.20;;;12.50;64.20;14.10;101374.00;;;;5019520;28;20207;-73
2024/03/16 06:16:47;;;;;;;5.57;0.77;;;12.50;64.20;14.10;101386.00;;;;5003417;28;20216;-74
2024/03/16 06:19:15;;;;;;;3.33;0.60;;;12.60;64.40;14.10;101393.00;;;;5015842;28;20279;-74
2024/03/16 06:21:46;;;;;;;1.50;0.57;;;12.50;64.20;14.00;101404.00;;;;5010224;28;20206;-73
2024/03/16 06:24:14;;;;;;;3.75;0.77;;;12.50;64.30;14.00;101400.00;;;;5014853;28;20278;-74
2024/03/16 06:26:49;;;;;;;7.15;0.95;;;12.50;64.20;14.00;101405.00;;;;5015272;28;20631;-73
2024/03/16 06:29:18;;;;;;;1.30;0.40;;;12.50;64.10;14.00;101415.00;;;;5018506;28;20313;-74
2024/03/16 06:31:48;;;;;;;4.15;0.40;;;12.50;64.10;14.00;101421.00;;;;5002936;28;20199;-74
2024/03/16 06:34:15;;;;;;;4.07;0.50;;;12.40;64.00;14.00;101420.00;;;;5007286;28;20586;-74
2024/03/16 06:36:43;;;;;;;3.72;0.75;;;12.40;64.20;14.00;101424.00;;;;5008230;28;20438;-74
2024/03/16 06:39:11;;;;;;;3.65;0.75;;;12.40;64.00;14.00;101432.00;;;;5009928;28;20548;-74
2024/03/16 06:41:38;;;;;;;1.90;0.60;;;12.40;64.00;14.00;101438.00;;;;5007643;28;20685;-74
2024/03/16 06:44:05;;;;;;;4.43;0.47;;;12.40;64.10;14.00;101444.00;;;;5009241;28;20812;-74
2024/03/16 06:46:33;;;;;;;3.83;0.50;;;12.40;64.90;14.00;101448.00;;;;5005258;28;20196;-73
2024/03/16 06:49:05;;;;;;;1.63;0.40;;;12.40;64.20;14.00;101453.00;;;;5004531;28;20284;-74
2024/03/16 06:51:32;;;;;;;1.70;0.50;;;12.40;64.20;14.00;101459.00;;;;5029071;28;20251;-74
2024/03/16 06:54:02;;;;;;;2.25;0.45;;;12.40;64.30;14.00;101461.00;;;;5000510;28;20204;-74
2024/03/16 06:56:32;;;;;;;2.47;0.73;;;12.40;64.30;14.00;101465.00;;;;5006055;28;20650;-74
2024/03/16 06:58:59;;;;;;;2.65;0.55;;;12.40;64.40;14.00;101472.00;;;;5011935;28;20200;-74
2024/03/16 07:01:27;;;;;;;3.22;0.52;;;12.40;65.10;14.00;101482.00;;;;5010557;28;20199;-74
2024/03/16 07:03:54;;;;;;;4.53;0.65;;;12.40;64.40;14.10;101491.00;;;;5000622;28;20193;-74
2024/03/16 07:06:21;;;;;;;2.90;0.60;;;12.40;64.50;14.10;101503.00;;;;5018057;28;20317;-74
2024/03/16 07:08:48;;;;;;;2.20;0.52;;;12.40;65.20;14.10;101513.00;;;;5006516;28;20199;-74
2024/03/16 07:11:18;;;;;;;2.78;0.60;;;12.50;64.50;14.10;101515.00;;;;5007712;28;20295;-74
2024/03/16 07:13:46;;;;;;;2.63;0.57;;;12.50;64.30;14.20;101525.00;;;;5013306;28;20229;-74
2024/03/16 07:16:14;;;;;;;3.50;0.50;;;12.50;64.40;14.20;101536.00;;;;5009974;28;20744;-74
2024/03/16 07:18:44;;;;;;;2.42;0.60;;;12.50;64.40;14.20;101528.00;;;;5011141;28;20219;-74
2024/03/16 07:21:11;;;;;;;1.98;0.80;;;12.50;64.30;14.30;101547.00;;;;5007642;28;20284;-74
2024/03/16 07:23:39;;;;;;;3.15;0.68;;;12.50;64.20;14.30;101546.00;;;;5003749;28;20206;-73
2024/03/16 07:26:07;;;;;;;4.63;1.10;;;12.60;64.30;14.30;101546.00;;;;5004088;28;20189;-73
2024/03/16 07:28:34;;;;;;;4.45;0.88;;;12.60;64.30;14.30;101545.00;;;;5009958;28;20199;-74
2024/03/16 07:31:02;;;;;;;1.27;0.60;;;12.60;64.30;14.40;101550.00;;;;5011533;28;20192;-73
2024/03/16 07:33:30;;;;;;;2.85;0.47;;;12.70;64.30;14.40;101547.00;;;;5016442;28;20207;-73
2024/03/16 07:35:58;;;;;;;2.90;0.70;;;12.60;64.30;14.50;101548.00;;;;5016592;28;20258;-73
2024/03/16 07:38:25;;;;;;;4.05;0.85;;;12.70;64.30;14.50;101562.00;;;;5016501;28;20591;-74
2024/03/16 07:40:53;;;;;;;1.48;0.45;;;12.70;64.40;14.60;101566.00;;;;5015154;28;20287;-74
2024/03/16 07:43:20;;;;;;;3.60;0.68;;;12.80;65.20;14.60;101576.00;;;;5009388;28;20244;-73
2024/03/16 07:45:50;;;;;;;1.40;0.40;;;12.80;64.30;14.60;101575.00;;;;5006827;28;20220;-74
2024/03/16 07:48:17;;;;;;;4.72;0.65;;;12.90;64.10;14.70;101583.00;;;;4999928;28;20192;-73
2024/03/16 07:50:44;;;;;;;5.93;1.10;;;12.90;64.70;14.70;101593.00;;;;5000363;28;20200;-73
2024/03/16 07:53:11;;;;;;;2.25;0.65;;;12.90;64.10;14.80;101591.00;;;;5015370;28;20202;-74
2024/03/16 07:55:39;;;;;;;1.00;0.50;;;13.00;64.00;14.80;101599.00;;;;5014836;28;20234;-74
2024/03/16 07:58:07;;;;;;;3.55;0.60;;;13.00;63.90;14.80;101604.00;;;;5014029;28;20220;-74
2024/03/16 08:00:34;;;;;;;3.50;0.45;;;13.10;63.70;14.90;101615.00;;;;5000307;28;20200;-74
2024/03/16 08:03:01;;;;;;;2.35;0.45;;;13.10;63.70;14.90;101614.00;;;;5015575;28;20192;-74
2024/03/16 08:05:30;;;;;;;5.68;0.80;;;13.10;63.70;14.90;101622.00;;;;5015434;28;20228;-74
2024/03/16 08:07:57;;;;;;;3.42;1.38;;;13.20;63.60;15.00;101629.00;;;;5025684;28;20195;-75
2024/03/16 08:10:24;;;;;;;6.55;0.90;;;13.20;63.80;15.10;101634.00;;;;5008271;28;20646;-74
2024/03/16 08:12:52;;;;;;;5.38;0.80;;;13.30;63.60;15.10;101644.00;;;;5005152;28;20192;-74
2024/03/16 08:15:19;;;;;;;4.35;0.60;;;13.30;63.60;15.10;101628.00;;;;5027742;28;20212;-75
2024/03/16 08:17:47;;;;;;;3.95;0.70;;;13.30;63.50;15.10;101636.00;;;;5005672;28;20298;-74
2024/03/16 08:20:15;;;;;;;2.03;0.65;;;13.40;63.20;15.20;101637.00;;;;5003394;28;20201;-74
2024/03/16 08:22:42;;;;;;;1.88;0.55;;;13.40;63.10;15.20;101636.00;;;;5012961;28;20634;-75
2024/03/16 08:25:10;;;;;;;5.30;0.70;;;13.50;63.00;15.20;101650.00;;;;4999736;28;20200;-75
2024/03/16 08:27:37;;;;;;;1.48;0.70;;;13.50;62.90;15.20;101656.00;;;;5001532;28;20200;-75
2024/03/16 08:30:05;;;;;;;2.20;0.57;;;13.50;63.00;15.30;101661.00;;;;5015277;28;20687;-75
2024/03/16 08:32:32;;;;;;;1.48;0.40;;;13.50;62.90;15.40;101669.00;;;;5005177;28;20250;-77
2024/03/16 08:35:00;;;;;;;3.72;0.65;;;13.60;63.10;15.40;101671.00;;;;5006722;28;20571;-75
2024/03/16 08:37:27;;;;;;;2.03;0.50;;;13.60;62.80;15.40;101675.00;;;;5022709;28;20234;-73
2024/03/16 08:39:54;;;;;;;2.75;0.80;;;13.70;62.60;15.50;101675.00;;;;5001785;28;20282;-84
2024/03/16 08:42:21;;;;;;;3.47;0.73;;;13.70;63.20;15.50;101682.00;;;;5005652;28;20191;-87
2024/03/16 08:44:48;;;;;;;4.20;0.80;;;13.80;62.30;15.50;101681.00;;;;5011301;28;20204;-83
2024/03/16 08:47:16;;;;;;;2.53;1.23;;;13.80;62.10;15.50;101687.00;;;;5018282;28;20269;-89
2024/03/16 08:49:43;;;;;;;4.82;0.60;;;13.80;62.00;15.50;101687.00;;;;5005209;28;20207;-91
2024/03/16 08:52:10;;;;;;;2.67;0.68;;;13.80;61.80;15.50;101695.00;;;;5003725;28;20203;-86
2024/03/16 08:54:38;;;;;;;5.65;1.13;;;13.80;61.30;15.50;101687.00;;;;5036297;28;20202;-82
2024/03/16 08:57:05;;;;;;;1.65;0.40;;;13.90;61.30;15.40;101691.00;;;;5013231;28;20223;-82
2024/03/16 08:59:32;;;;;;;3.97;0.65;;;13.80;61.20;15.40;101700.00;;;;5002977;28;20712;-83
2024/03/16 09:01:59;;;;;;;2.22;0.47;;;13.80;61.10;15.50;101696.00;;;;5034612;28;20247;-83
2024/03/16 09:04:26;;;;;;;3.42;0.45;;;13.80;61.10;15.50;101703.00;;;;5015259;28;20680;-82
2024/03/16 09:06:53;;;;;;;2.10;0.40;;;13.80;60.90;15.50;101706.00;;;;4993402;28;20763;-88
2024/03/16 09:09:21;;;;;;;1.85;0.50;;;13.80;60.90;15.50;101707.00;;;;4994320;28;20578;-80
2024/03/16 09:11:49;;;;;;;2.50;0.43;;;13.80;60.60;15.40;101710.00;;;;5001712;28;20269;-86
2024/03/16 09:14:16;;;;;;;2.70;0.73;;;13.80;60.20;15.40;101730.00;;;;5001666;28;20731;-81
2024/03/16 09:16:43;;;;;;;3.33;0.47;;;13.80;60.10;15.40;101736.00;;;;4982693;28;20861;-81
2024/03/16 09:19:10;;;;;;;1.80;0.43;;;13.80;59.60;15.40;101747.00;;;;5014433;28;20314;-81
2024/03/16 09:21:38;;;;;;;3.63;0.75;;;13.80;59.70;15.40;101755.00;;;;4998392;28;20232;-78
2024/03/16 09:24:04;;;;;;;1.25;0.40;;;13.80;59.70;15.40;101744.00;;;;5013499;28;20203;-77
2024/03/16 09:26:32;;;;;;;2.80;1.23;;;13.80;59.70;15.40;101741.00;;;;4991225;28;20674;-78
2024/03/16 09:28:59;;;;;;;1.70;0.30;;;13.80;59.60;15.50;101746.00;;;;4982461;28;20208;-78
2024/03/16 09:31:26;;;;;;;1.85;0.20;;;13.90;59.50;15.50;101755.00;;;;5014138;28;20189;-77
2024/03/16 09:33:53;;;;;;;6.22;0.47;;;13.80;59.50;15.60;101758.00;;;;4998366;28;20299;-78
2024/03/16 09:36:21;;;;;;;2.72;0.57;;;13.90;59.60;15.60;101763.00;;;;5006204;28;20864;-78
2024/03/16 09:38:48;;;;;;;1.45;0.20;;;13.90;59.40;15.60;101771.00;;;;4997885;28;20224;-78
2024/03/16 09:41:17;;;;;;;2.92;0.32;;;13.90;59.40;15.70;101768.00;;;;5000546;28;20200;-78
2024/03/16 09:43:44;;;;;;;1.05;0.50;;;14.00;59.40;15.70;101775.00;;;;4982470;28;20287;-82
2024/03/16 09:46:11;;;;;;;1.08;0.30;;;14.00;59.10;15.70;101780.00;;;;4995158;28;20724;-82
2024/03/16 09:48:39;;;;;;;2.65;0.22;;;14.00;59.70;15.70;101789.00;;;;4983211;28;20628;-81
2024/03/16 09:51:09;;;;;;;2.22;0.50;;;14.00;59.00;15.70;101791.00;;;;4995948;28;20287;-81
2024/03/16 09:53:38;;;;;;;2.08;0.60;;;14.10;59.10;15.70;101799.00;;;;4983877;28;20235;-82
2024/03/16 09:56:07;;;;;;;2.15;0.45;;;14.10;59.10;15.70;101799.00;;;;4985833;28;20567;-80
2024/03/16 09:58:35;;;;;;;1.55;0.60;;;14.10;58.90;15.70;101810.00;;;;4986296;28;20234;-82
2024/03/16 10:01:03;;;;;;;2.80;0.52;;;14.10;58.80;15.70;101811.00;;;;4985746;28;20563;-82
2024/03/16 10:03:31;;;;;;;3.70;0.60;;;14.10;58.50;15.70;101813.00;;;;4993951;28;20204;-83
2024/03/16 10:05:59;;;;;;;2.55;0.40;;;14.10;58.60;15.70;101821.00;;;;4996948;28;20235;-81
2024/03/16 10:08:27;;;;;;;2.38;0.40;;;14.10;58.70;15.80;101826.00;;;;4986156;28;20266;-82
2024/03/16 10:11:09;;;;;;;2.67;0.32;;;14.10;58.70;15.70;101825.00;;;;5005701;28;20196;-81
2024/03/16 10:13:38;;;;;;;3.45;0.50;;;14.10;58.60;15.80;101828.00;;;;5016352;28;20720;-81
2024/03/16 10:16:07;;;;;;;3.20;0.57;;;14.20;58.80;15.80;101833.00;;;;5000722;28;20227;-84
2024/03/16 10:18:35;;;;;;;4.88;0.40;;;14.20;58.30;15.80;101835.00;;;;5021616;28;20598;-83
2024/03/16 10:21:03;;;;;;;2.67;0.55;;;14.20;58.30;15.80;101830.00;;;;5021391;28;20196;-85
2024/03/16 10:23:31;;;;;;;1.65;0.52;;;14.20;58.20;15.80;101850.00;;;;5021272;28;20203;-80
2024/03/16 10:25:58;;;;;;;5.95;1.10;;;14.20;57.90;15.80;101855.00;;;;5018284;28;20203;-84
2024/03/16 10:28:26;;;;;;;3.15;0.40;;;14.20;57.70;15.80;101858.00;;;;5010499;28;20209;-84
2024/03/16 10:30:54;;;;;;;4.43;0.60;;;14.20;57.70;15.80;101863.00;;;;5017553;28;20266;-83
2024/03/16 10:33:22;;;;;;;2.53;0.52;;;14.20;57.80;15.80;101870.00;;;;5020011;28;20580;-81
2024/03/16 10:35:49;;;;;;;2.38;0.60;;;14.20;57.80;15.80;101874.00;;;;5006147;28;20204;-82
2024/03/16 10:38:19;;;;;;;3.83;0.57;;;14.20;57.70;15.90;101874.00;;;;5001211;28;20211;-84
2024/03/16 10:40:46;;;;;;;2.08;0.57;;;14.30;57.70;15.90;101874.00;;;;5000286;28;20200;-78
2024/03/16 10:43:13;;;;;;;4.65;0.85;;;14.30;57.80;16.00;101886.00;;;;5001011;28;20677;-88
2024/03/16 10:45:45;;;;;;;3.40;0.57;;;14.30;57.90;16.00;101888.00;;;;5002201;28;20580;-85
2024/03/16 10:48:13;;;;;;;6.75;1.13;;;14.40;57.80;16.10;101892.00;;;;5010478;28;20222;-81
2024/03/16 10:50:43;;;;;;;3.70;0.90;;;14.40;57.70;16.10;101894.00;;;;5027122;28;20195;-83